createdAt,value
2019-03-12T00:00:38.237Z,3.80
2019-03-12T00:03:11.078Z,3.80
2019-03-12T00:05:43.999Z,3.80
2019-03-12T00:08:16.899Z,3.80
2019-03-12T00:10:50.014Z,3.90
2019-03-12T00:13:22.962Z,3.90
2019-03-12T00:15:56.250Z,4.00
2019-03-12T00:18:29.321Z,4.00
2019-03-12T00:21:03.201Z,3.90
2019-03-12T00:23:36.114Z,3.90
2019-03-12T00:26:09.103Z,3.80
2019-03-12T00:28:41.942Z,3.80
2019-03-12T00:31:15.173Z,3.80
2019-03-12T00:33:48.070Z,3.70
2019-03-12T00:36:21.000Z,3.70
2019-03-12T00:38:53.774Z,3.60
2019-03-12T00:41:26.579Z,3.40
2019-03-12T00:43:59.520Z,3.40
2019-03-12T00:46:32.570Z,3.30
2019-03-12T00:49:05.332Z,3.20
2019-03-12T00:51:38.280Z,3.20
2019-03-12T00:54:11.292Z,3.10
2019-03-12T00:56:44.100Z,3.00
2019-03-12T00:59:17.460Z,3.00
2019-03-12T01:01:50.342Z,2.80
2019-03-12T01:04:23.188Z,2.90
2019-03-12T01:06:56.077Z,2.90
2019-03-12T01:09:29.030Z,2.80
2019-03-12T01:12:02.202Z,2.70
2019-03-12T01:14:35.005Z,2.70
2019-03-12T01:17:07.766Z,2.70
2019-03-12T01:19:40.577Z,2.60
2019-03-12T01:22:13.680Z,2.60
2019-03-12T01:24:46.491Z,2.60
2019-03-12T01:27:19.496Z,2.50
2019-03-12T01:29:52.507Z,2.50
2019-03-12T01:32:25.412Z,2.50
2019-03-12T01:34:58.256Z,2.50
2019-03-12T01:37:32.590Z,2.50
2019-03-12T01:40:07.665Z,2.50
2019-03-12T01:42:40.592Z,2.50
2019-03-12T01:45:15.488Z,2.50
2019-03-12T01:47:48.397Z,2.30
2019-03-12T01:50:21.762Z,2.20
2019-03-12T01:52:54.646Z,2.10
2019-03-12T01:55:27.421Z,2.10
2019-03-12T01:58:00.384Z,2.00
2019-03-12T02:00:34.471Z,1.90
2019-03-12T02:03:08.458Z,1.90
2019-03-12T02:05:41.221Z,1.90
2019-03-12T02:08:14.301Z,1.90
2019-03-12T02:10:47.422Z,1.90
2019-03-12T02:13:20.456Z,2.00
2019-03-12T02:15:53.379Z,2.00
2019-03-12T02:18:26.159Z,2.00
2019-03-12T02:20:59.215Z,2.00
2019-03-12T02:23:32.253Z,1.90
2019-03-12T02:26:06.478Z,2.00
2019-03-12T02:28:39.751Z,1.90
2019-03-12T02:31:12.517Z,1.90
2019-03-12T02:33:45.464Z,1.90
2019-03-12T02:36:18.652Z,1.80
2019-03-12T02:38:51.452Z,1.70
2019-03-12T02:41:24.509Z,1.70
2019-03-12T02:43:57.496Z,1.70
2019-03-12T02:46:30.338Z,1.70
2019-03-12T02:49:03.528Z,1.70
2019-03-12T02:51:36.376Z,1.80
2019-03-12T02:54:09.438Z,1.90
2019-03-12T02:56:42.228Z,1.90
2019-03-12T02:59:15.113Z,1.90
2019-03-12T03:01:48.107Z,1.90
2019-03-12T03:04:21.123Z,1.90
2019-03-12T03:07:02.074Z,1.90
2019-03-12T03:09:35.059Z,1.90
2019-03-12T03:12:07.808Z,1.90
2019-03-12T03:14:40.791Z,1.90
2019-03-12T03:17:15.575Z,1.80
2019-03-12T03:19:48.557Z,1.80
2019-03-12T03:22:21.537Z,1.80
2019-03-12T03:24:54.723Z,1.80
2019-03-12T03:27:29.289Z,1.80
2019-03-12T03:30:02.445Z,1.80
2019-03-12T03:32:35.715Z,1.80
2019-03-12T03:35:08.714Z,1.80
2019-03-12T03:37:41.462Z,1.80
2019-03-12T03:40:17.883Z,1.90
2019-03-12T03:42:50.787Z,2.00
2019-03-12T03:45:23.746Z,2.10
2019-03-12T03:47:56.648Z,2.10
2019-03-12T03:50:29.701Z,2.20
2019-03-12T03:53:02.777Z,2.20
2019-03-12T03:55:35.691Z,2.30
2019-03-12T03:58:08.427Z,2.30
2019-03-12T04:00:41.249Z,2.30
2019-03-12T04:03:14.354Z,2.40
2019-03-12T04:05:47.558Z,2.50
2019-03-12T04:08:20.629Z,2.50
2019-03-12T04:10:53.492Z,2.50
2019-03-12T04:13:26.503Z,2.50
2019-03-12T04:15:59.304Z,2.50
2019-03-12T04:18:32.290Z,2.50
2019-03-12T04:21:05.259Z,2.50
2019-03-12T04:23:38.320Z,2.60
2019-03-12T04:26:11.443Z,2.60
2019-03-12T04:28:44.587Z,2.60
2019-03-12T04:31:17.393Z,2.60
2019-03-12T04:34:14.230Z,2.60
2019-03-12T04:36:49.354Z,2.60
2019-03-12T04:39:22.379Z,2.60
2019-03-12T04:41:55.342Z,2.60
2019-03-12T04:44:28.258Z,2.60
2019-03-12T04:47:01.065Z,2.60
2019-03-12T04:49:33.849Z,2.60
2019-03-12T04:52:06.904Z,2.60
2019-03-12T04:54:39.763Z,2.60
2019-03-12T04:57:12.688Z,2.60
2019-03-12T04:59:45.699Z,2.60
2019-03-12T05:02:18.442Z,2.70
2019-03-12T05:04:51.273Z,2.70
2019-03-12T05:07:24.220Z,2.70
2019-03-12T05:09:57.098Z,2.70
2019-03-12T05:12:30.750Z,2.70
2019-03-12T05:15:07.173Z,2.70
2019-03-12T05:17:40.674Z,2.70
2019-03-12T05:20:14.982Z,2.70
2019-03-12T05:22:48.083Z,2.70
2019-03-12T05:25:21.098Z,2.70
2019-03-12T05:27:53.925Z,2.70
2019-03-12T05:30:26.949Z,2.70
2019-03-12T05:32:59.905Z,2.70
2019-03-12T05:35:32.739Z,2.70
2019-03-12T05:38:05.681Z,2.80
2019-03-12T05:40:38.476Z,2.80
2019-03-12T05:43:11.375Z,2.80
2019-03-12T05:45:44.268Z,2.80
2019-03-12T05:48:17.454Z,2.80
2019-03-12T05:50:50.358Z,2.90
2019-03-12T05:53:29.139Z,2.90
2019-03-12T05:56:02.046Z,2.90
2019-03-12T05:58:34.880Z,3.00
2019-03-12T06:01:07.937Z,3.00
2019-03-12T06:03:40.936Z,3.00
2019-03-12T06:06:13.743Z,3.10
2019-03-12T06:08:46.995Z,3.10
2019-03-12T06:11:20.044Z,3.10
2019-03-12T06:13:53.305Z,3.20
2019-03-12T06:16:26.514Z,3.20
2019-03-12T06:18:59.316Z,3.20
2019-03-12T06:21:32.347Z,3.30
2019-03-12T06:24:05.575Z,3.40
2019-03-12T06:26:38.571Z,3.40
2019-03-12T06:29:11.522Z,3.40
2019-03-12T06:32:04.171Z,3.50
2019-03-12T06:34:50.637Z,3.50
2019-03-12T06:37:32.001Z,3.60
2019-03-12T06:40:34.321Z,3.70
2019-03-12T06:43:12.966Z,3.70
2019-03-12T06:46:23.756Z,3.80
2019-03-12T06:49:10.497Z,3.80
2019-03-12T06:52:09.141Z,3.90
2019-03-12T06:55:20.036Z,4.00
2019-03-12T06:58:34.564Z,4.10
2019-03-12T07:01:29.519Z,4.20
2019-03-12T07:04:21.939Z,4.30
2019-03-12T07:07:20.383Z,4.30
2019-03-12T07:10:12.749Z,4.30
2019-03-12T07:12:59.541Z,4.40
2019-03-12T07:16:04.993Z,4.40
2019-03-12T07:19:12.745Z,4.50
2019-03-12T07:22:04.171Z,4.60
2019-03-12T07:24:55.783Z,4.60
2019-03-12T07:27:48.350Z,4.70
2019-03-12T07:30:40.087Z,4.80
2019-03-12T07:33:28.132Z,4.90
2019-03-12T07:36:19.061Z,5.00
2019-03-12T07:39:10.100Z,5.10
2019-03-12T07:41:59.687Z,5.10
2019-03-12T07:45:04.211Z,5.20
2019-03-12T07:47:58.997Z,5.40
2019-03-12T07:51:00.074Z,5.40
2019-03-12T07:54:07.487Z,5.40
2019-03-12T07:57:08.888Z,5.50
2019-03-12T08:00:09.880Z,5.70
2019-03-12T08:03:00.566Z,5.80
2019-03-12T08:05:39.107Z,5.70
2019-03-12T08:08:18.486Z,5.70
2019-03-12T08:11:11.063Z,5.70
2019-03-12T08:14:06.307Z,5.80
2019-03-12T08:17:14.250Z,5.80
2019-03-12T08:20:15.882Z,5.90
2019-03-12T08:23:08.318Z,6.00
2019-03-12T08:26:06.714Z,6.00
2019-03-12T08:28:57.738Z,6.10
2019-03-12T08:35:11.941Z,6.40
2019-03-12T08:38:08.116Z,6.60
2019-03-12T08:40:52.729Z,6.50
2019-03-12T08:43:37.222Z,6.70
2019-03-12T08:46:30.176Z,6.80
2019-03-12T08:49:12.796Z,6.80
2019-03-12T08:52:04.294Z,6.90
2019-03-12T08:55:06.081Z,6.90
2019-03-12T08:57:57.426Z,6.90
2019-03-12T09:00:48.481Z,6.80
2019-03-12T09:03:47.748Z,6.90
2019-03-12T09:06:39.515Z,6.90
2019-03-12T09:09:27.969Z,6.90
2019-03-12T09:12:26.283Z,7.30
2019-03-12T09:15:21.462Z,7.40
2019-03-12T09:18:12.644Z,7.40
2019-03-12T09:21:14.044Z,7.60
2019-03-12T09:24:09.303Z,7.80
2019-03-12T09:27:13.831Z,7.90
2019-03-12T09:30:09.093Z,8.10
2019-03-12T09:33:07.887Z,8.10
2019-03-12T09:36:02.867Z,8.40
2019-03-12T09:38:55.255Z,8.20
2019-03-12T09:41:43.274Z,8.20
2019-03-12T09:44:34.459Z,8.30
2019-03-12T09:47:14.506Z,8.50
2019-03-12T09:50:04.505Z,8.50
2019-03-12T09:52:53.918Z,8.30
2019-03-12T09:55:49.174Z,8.60
2019-03-12T09:58:38.969Z,8.50
2019-03-12T10:01:31.352Z,8.50
2019-03-12T10:04:13.972Z,8.50
2019-03-12T10:07:09.189Z,8.50
2019-03-12T10:09:54.083Z,8.50
2019-03-12T10:12:49.423Z,8.40
2019-03-12T10:15:44.924Z,8.40
2019-03-12T10:18:46.679Z,8.40
2019-03-12T10:21:42.073Z,8.70
2019-03-12T10:24:43.628Z,8.70
2019-03-12T10:27:31.619Z,8.50
2019-03-12T10:30:24.178Z,8.40
2019-03-12T10:33:13.243Z,8.50
2019-03-12T10:35:55.841Z,8.50
2019-03-12T10:39:13.640Z,8.50
2019-03-12T10:41:58.263Z,8.50
2019-03-12T10:44:50.773Z,8.80
2019-03-12T10:47:24.394Z,8.90
2019-03-12T10:49:57.418Z,9.00
2019-03-12T10:52:30.423Z,9.00
2019-03-12T10:55:12.867Z,9.30
2019-03-12T10:57:38.679Z,9.60
2019-03-12T11:00:12.254Z,9.70
2019-03-12T11:02:45.658Z,10.00
2019-03-12T11:05:18.913Z,9.80
2019-03-12T11:07:51.943Z,9.90
2019-03-12T11:10:25.000Z,9.80
2019-03-12T11:12:58.030Z,10.00
2019-03-12T11:15:30.945Z,10.00
2019-03-12T11:18:03.870Z,9.90
2019-03-12T11:20:36.668Z,10.10
2019-03-12T11:23:09.865Z,9.90
2019-03-12T11:25:42.733Z,9.60
2019-03-12T11:28:15.822Z,9.40
2019-03-12T11:30:48.956Z,9.60
2019-03-12T11:33:21.976Z,9.80
2019-03-12T11:35:55.174Z,9.80
2019-03-12T11:38:28.241Z,9.60
2019-03-12T11:41:01.791Z,9.50
2019-03-12T11:43:34.842Z,9.50
2019-03-12T11:46:08.123Z,9.60
2019-03-12T11:48:41.471Z,9.60
2019-03-12T11:51:14.300Z,9.60
2019-03-12T11:53:47.936Z,9.60
2019-03-12T11:56:21.136Z,9.80
2019-03-12T11:58:54.319Z,9.70
2019-03-12T12:01:27.164Z,10.10
2019-03-12T12:04:00.233Z,10.30
2019-03-12T12:06:33.215Z,10.60
2019-03-12T12:09:06.837Z,10.60
2019-03-12T12:11:41.701Z,10.80
2019-03-12T12:14:14.649Z,11.00
2019-03-12T12:16:47.877Z,10.70
2019-03-12T12:19:20.835Z,10.80
2019-03-12T12:22:13.081Z,10.60
2019-03-12T12:24:46.107Z,10.50
2019-03-12T12:27:20.055Z,10.90
2019-03-12T12:29:53.955Z,10.60
2019-03-12T12:32:26.899Z,10.40
2019-03-12T12:34:59.851Z,10.40
2019-03-12T12:37:32.761Z,10.40
2019-03-12T12:40:07.541Z,10.20
2019-03-12T12:42:40.805Z,10.30
2019-03-12T12:45:17.745Z,10.40
2019-03-12T12:47:50.797Z,10.30
2019-03-12T12:50:23.994Z,10.40
2019-03-12T12:52:56.992Z,10.50
2019-03-12T12:55:29.780Z,10.70
2019-03-12T12:58:02.981Z,10.90
2019-03-12T13:00:38.303Z,10.80
2019-03-12T13:03:11.093Z,10.50
2019-03-12T13:05:44.160Z,10.50
2019-03-12T13:08:17.187Z,10.60
2019-03-12T13:10:50.313Z,10.50
2019-03-12T13:13:23.266Z,10.40
2019-03-12T13:15:56.495Z,10.50
2019-03-12T13:18:29.478Z,10.70
2019-03-12T13:21:02.725Z,10.60
2019-03-12T13:23:36.216Z,10.60
2019-03-12T13:26:09.277Z,10.40
2019-03-12T13:28:44.878Z,10.50
2019-03-12T13:31:17.076Z,10.50
2019-03-12T13:33:50.320Z,10.60
2019-03-12T13:36:23.345Z,10.60
2019-03-12T13:38:56.202Z,10.50
2019-03-12T13:41:29.411Z,10.60
2019-03-12T13:44:02.396Z,10.60
2019-03-12T13:46:35.602Z,10.70
2019-03-12T13:49:08.742Z,10.80
2019-03-12T13:51:41.743Z,10.90
2019-03-12T13:54:14.766Z,10.80
2019-03-12T13:56:47.860Z,10.60
2019-03-12T13:59:21.200Z,10.40
2019-03-12T14:01:54.446Z,10.50
2019-03-12T14:04:27.705Z,10.50
2019-03-12T14:07:00.748Z,10.50
2019-03-12T14:09:33.707Z,10.40
2019-03-12T14:12:06.981Z,10.50
2019-03-12T14:14:40.470Z,10.50
2019-03-12T14:17:13.670Z,10.40
2019-03-12T14:19:47.077Z,10.40
2019-03-12T14:22:20.283Z,10.40
2019-03-12T14:24:53.461Z,10.30
2019-03-12T14:27:26.626Z,10.30
2019-03-12T14:29:59.603Z,10.20
2019-03-12T14:32:32.783Z,10.20
2019-03-12T14:35:05.713Z,10.20
2019-03-12T14:37:38.913Z,10.20
2019-03-12T14:40:11.822Z,10.20
2019-03-12T14:42:44.867Z,10.10
2019-03-12T14:45:24.787Z,10.10
2019-03-12T14:47:57.814Z,10.10
2019-03-12T14:50:30.906Z,10.10
2019-03-12T14:53:07.437Z,10.10
2019-03-12T14:55:41.304Z,10.10
2019-03-12T14:58:14.072Z,10.10
2019-03-12T15:00:47.194Z,10.10
2019-03-12T15:03:21.057Z,10.10
2019-03-12T15:05:54.162Z,10.00
2019-03-12T15:08:27.135Z,9.90
2019-03-12T15:11:00.218Z,9.90
2019-03-12T15:13:33.533Z,10.00
2019-03-12T15:16:06.978Z,9.90
2019-03-12T15:18:39.842Z,9.90
2019-03-12T15:21:12.736Z,10.00
2019-03-12T15:23:45.690Z,10.00
2019-03-12T15:26:18.835Z,10.00
2019-03-12T15:28:52.837Z,10.00
2019-03-12T15:31:25.851Z,10.00
2019-03-12T15:33:58.942Z,10.00
2019-03-12T15:36:31.932Z,10.00
2019-03-12T15:39:08.108Z,10.00
2019-03-12T15:41:42.740Z,10.00
2019-03-12T15:44:18.942Z,10.10
2019-03-12T15:46:50.705Z,10.10
2019-03-12T15:49:23.611Z,10.00
2019-03-12T15:51:56.798Z,10.00
2019-03-12T15:54:29.709Z,10.00
2019-03-12T15:57:03.179Z,10.10
2019-03-12T15:59:36.357Z,10.00
2019-03-12T16:02:09.399Z,10.00
2019-03-12T16:04:42.615Z,10.00
2019-03-12T16:07:15.508Z,10.00
2019-03-12T16:09:48.589Z,10.00
2019-03-12T16:12:23.358Z,10.00
2019-03-12T16:14:56.566Z,10.00
2019-03-12T16:17:29.921Z,10.00
2019-03-12T16:20:03.525Z,10.00
2019-03-12T16:22:36.460Z,10.00
2019-03-12T16:25:09.808Z,10.00
2019-03-12T16:27:42.840Z,10.00
2019-03-12T16:30:15.987Z,9.90
2019-03-12T16:32:48.864Z,9.90
2019-03-12T16:35:22.069Z,9.90
2019-03-12T16:37:55.072Z,10.00
2019-03-12T16:40:28.146Z,10.00
2019-03-12T16:43:00.989Z,10.00
2019-03-12T16:45:34.079Z,10.00
2019-03-12T16:48:07.154Z,10.00
2019-03-12T16:50:40.080Z,10.00
2019-03-12T16:53:13.067Z,10.00
2019-03-12T16:55:46.068Z,10.00
2019-03-12T16:58:18.873Z,10.00
2019-03-12T17:00:51.785Z,10.00
2019-03-12T17:03:24.850Z,10.00
2019-03-12T17:05:57.948Z,10.00
2019-03-12T17:08:30.884Z,10.00
2019-03-12T17:11:03.885Z,10.00
2019-03-12T17:13:39.365Z,9.90
2019-03-12T17:16:13.323Z,9.90
2019-03-12T17:18:46.424Z,10.00
2019-03-12T17:21:19.289Z,10.00
2019-03-12T17:23:52.082Z,10.00
2019-03-12T17:26:25.361Z,9.90
2019-03-12T17:28:58.285Z,9.90
2019-03-12T17:31:31.548Z,9.90
2019-03-12T17:34:04.452Z,9.90
2019-03-12T17:36:37.496Z,9.90
2019-03-12T17:39:10.532Z,9.90
2019-03-12T17:41:44.595Z,9.80
2019-03-12T17:44:17.667Z,9.80
2019-03-12T17:46:50.770Z,9.90
2019-03-12T17:49:23.985Z,9.90
2019-03-12T17:51:56.865Z,9.80
2019-03-12T17:54:32.035Z,9.80
2019-03-12T17:57:04.749Z,9.90
2019-03-12T17:59:38.708Z,9.90
2019-03-12T18:02:11.936Z,9.80
2019-03-12T18:04:45.051Z,9.90
2019-03-12T18:07:18.197Z,9.90
2019-03-12T18:09:51.183Z,9.80
2019-03-12T18:12:24.031Z,9.80
2019-03-12T18:14:57.254Z,9.90
2019-03-12T18:17:30.276Z,9.90
2019-03-12T18:20:04.151Z,10.00
2019-03-12T18:22:39.086Z,10.00
2019-03-12T18:25:15.051Z,10.00
2019-03-12T18:27:48.343Z,10.00
2019-03-12T18:30:21.436Z,10.00
2019-03-12T18:32:54.467Z,10.00
2019-03-12T18:35:27.766Z,10.20
2019-03-12T18:38:00.796Z,10.20
2019-03-12T18:40:33.994Z,10.20
2019-03-12T18:43:07.002Z,10.20
2019-03-12T18:45:39.881Z,10.20
2019-03-12T18:48:13.016Z,10.30
2019-03-12T18:50:46.036Z,10.20
2019-03-12T18:53:19.283Z,10.30
2019-03-12T18:56:03.337Z,10.20
2019-03-12T18:58:36.392Z,10.20
2019-03-12T19:01:16.492Z,10.30
2019-03-12T19:03:49.567Z,10.30
2019-03-12T19:06:22.310Z,10.30
2019-03-12T19:08:56.847Z,10.30
2019-03-12T19:11:32.300Z,10.20
2019-03-12T19:14:04.872Z,10.30
2019-03-12T19:16:37.951Z,10.40
2019-03-12T19:19:10.941Z,10.40
2019-03-12T19:21:44.040Z,10.40
2019-03-12T19:24:17.115Z,10.30
2019-03-12T19:26:50.256Z,10.30
2019-03-12T19:29:23.401Z,10.40
2019-03-12T19:32:06.606Z,10.30
2019-03-12T19:34:39.549Z,10.30
2019-03-12T19:37:13.866Z,10.20
2019-03-12T19:39:46.801Z,10.10
2019-03-12T19:42:19.827Z,10.00
2019-03-12T19:44:52.778Z,9.90
2019-03-12T19:47:26.053Z,9.90
2019-03-12T19:49:59.108Z,9.90
2019-03-12T19:52:32.154Z,9.90
2019-03-12T19:55:06.366Z,10.00
2019-03-12T19:57:39.497Z,10.00
2019-03-12T20:00:15.120Z,10.10
2019-03-12T20:02:48.597Z,10.00
2019-03-12T20:05:21.664Z,10.10
2019-03-12T20:07:54.586Z,10.10
2019-03-12T20:11:01.296Z,10.20
2019-03-12T20:14:21.543Z,10.40
2019-03-12T20:17:38.553Z,10.40
2019-03-12T20:20:54.990Z,10.30
2019-03-12T20:23:52.602Z,10.30
2019-03-12T20:27:07.151Z,10.40
2019-03-12T20:30:37.274Z,10.40
2019-03-12T20:33:57.293Z,10.40
2019-03-12T20:37:17.163Z,10.40
2019-03-12T20:40:27.951Z,10.40
2019-03-12T20:43:51.628Z,10.30
2019-03-12T20:47:18.521Z,10.30
2019-03-12T20:50:28.033Z,10.30
2019-03-12T20:53:45.034Z,10.20
2019-03-12T20:57:04.695Z,10.20
2019-03-12T21:00:09.903Z,10.10
2019-03-12T21:03:25.142Z,10.10
2019-03-12T21:06:53.476Z,10.10
2019-03-12T21:10:01.022Z,10.00
2019-03-12T21:13:20.628Z,10.00
2019-03-12T21:16:43.533Z,10.00
2019-03-12T21:19:52.906Z,9.90
2019-03-12T21:23:14.263Z,9.80
2019-03-12T21:26:21.248Z,9.60
2019-03-12T21:29:41.773Z,9.50
2019-03-12T21:32:16.710Z,9.40
2019-03-12T21:34:49.789Z,9.20
2019-03-12T21:37:24.776Z,8.70
2019-03-12T21:39:57.577Z,8.40
2019-03-12T21:42:30.510Z,7.80
2019-03-12T21:45:03.913Z,7.20
2019-03-12T21:47:37.306Z,6.50
2019-03-12T21:50:10.395Z,6.00
2019-03-12T21:52:43.373Z,5.80
2019-03-12T21:55:16.333Z,5.60
2019-03-12T21:57:49.107Z,5.50
2019-03-12T22:00:22.367Z,5.40
2019-03-12T22:02:55.516Z,5.30
2019-03-12T22:05:28.296Z,5.30
2019-03-12T22:08:01.195Z,5.20
2019-03-12T22:10:33.913Z,5.20
2019-03-12T22:13:06.648Z,5.10
2019-03-12T22:15:40.133Z,5.10
2019-03-12T22:18:13.083Z,5.10
2019-03-12T22:20:46.312Z,5.10
2019-03-12T22:23:38.628Z,5.10
2019-03-12T22:26:11.754Z,5.10
2019-03-12T22:28:44.803Z,5.10
2019-03-12T22:31:17.763Z,5.10
2019-03-12T22:33:50.674Z,5.10
2019-03-12T22:36:23.673Z,5.10
2019-03-12T22:38:56.433Z,5.10
2019-03-12T22:41:29.501Z,5.10
2019-03-12T22:44:02.407Z,5.20
2019-03-12T22:46:35.499Z,5.20
2019-03-12T22:49:08.940Z,5.20
2019-03-12T22:51:42.641Z,5.20
2019-03-12T22:54:15.738Z,5.20
2019-03-12T22:56:48.663Z,5.30
2019-03-12T22:59:23.106Z,5.30
2019-03-12T23:02:14.452Z,5.20
2019-03-12T23:05:06.359Z,5.20
2019-03-12T23:07:57.763Z,5.20
2019-03-12T23:10:32.835Z,5.10
2019-03-12T23:13:06.098Z,5.10
2019-03-12T23:15:41.038Z,5.10
2019-03-12T23:18:14.053Z,5.10
2019-03-12T23:20:46.940Z,5.20
2019-03-12T23:23:20.580Z,5.20
2019-03-12T23:25:53.552Z,5.20
2019-03-12T23:28:26.589Z,5.10
2019-03-12T23:31:00.015Z,5.10
2019-03-12T23:33:33.158Z,5.00
2019-03-12T23:36:06.432Z,5.00
2019-03-12T23:38:39.406Z,4.90
2019-03-12T23:41:12.493Z,4.90
2019-03-12T23:43:45.631Z,4.90
2019-03-12T23:46:18.669Z,5.00
2019-03-12T23:48:51.690Z,5.00
2019-03-12T23:51:24.674Z,5.00
2019-03-12T23:53:57.675Z,5.00
2019-03-12T23:56:30.434Z,5.10
2019-03-12T23:59:03.695Z,5.20
